K-storm — V2DV8 — position and weather

sailwx.info

Track history (hours):
 
Tides and Currents Weather Stations Pressure Air Temp Water Temp Dewpoint Dewpoint Depression Visibility Wind Speed Wind Dir Waves Ship Positions

K-storm

Last reported at 2014-Dec-19 15:24 UTC. Time now 2014-Dec-22 07:07 UTC.
Position N 25°41' W 079°43'.

Length 139 m; draft 6 m.

Type: Ship. MMSI: 305350000.

Date/timePositionNaut miles runAvg speedWind from/ knotsBaromVisibWave heightAir tempDewpointWater temp
2014-Dec-19 15:24N 25°41' W 079°43'1113.3
2014-Dec-19 14:34N 25°51' W 079°49'1414.4
2014-Dec-19 13:33N 26°02' W 079°60'7 6.5
2014-Dec-19 12:30N 26°04' W 080°07'0 0.0
2014-Dec-19 11:24N 26°04' W 080°07'0 0.0
2014-Dec-19 10:32N 26°04' W 080°07'0 0.0
2014-Dec-19 09:26N 26°04' W 080°07'0 0.0
2014-Dec-19 08:20N 26°04' W 080°07'0 0.0
2014-Dec-19 07:25N 26°04' W 080°07'0 0.0
2014-Dec-19 06:22N 26°04' W 080°07'0 0.0
2014-Dec-19 05:30N 26°04' W 080°07'0 0.0
2014-Dec-19 04:21N 26°04' W 080°07'0 0.0
2014-Dec-19 03:29N 26°04' W 080°07'0 0.0
2014-Dec-19 02:26N 26°04' W 080°07'0 0.0
2014-Dec-19 01:32N 26°04' W 080°07'0 0.0
2014-Dec-19 00:28N 26°04' W 080°07'0 0.0
2014-Dec-18 23:31N 26°04' W 080°07'0 0.0
2014-Dec-18 22:30N 26°04' W 080°07'0 0.0
2014-Dec-18 21:33N 26°04' W 080°07'0 0.0
2014-Dec-18 20:29N 26°04' W 080°07'0 0.0
2014-Dec-18 19:26N 26°04' W 080°07'0 0.0
2014-Dec-18 18:32N 26°04' W 080°07'0 0.0
2014-Dec-18 17:28N 26°04' W 080°07'0 0.0
2014-Dec-18 16:31N 26°04' W 080°07'0 0.0
2014-Dec-18 15:30N 26°04' W 080°07'0 0.0
2014-Dec-18 14:33N 26°04' W 080°07'0 0.0
2014-Dec-18 13:32N 26°04' W 080°07'1 0.8
2014-Dec-18 12:33N 26°05' W 080°07'7 7.3
2014-Dec-18 11:33N 26°02' W 079°59'1010.4
2014-Dec-18 10:33N 25°54' W 079°52'1010.3
2014-Dec-18 09:33N 25°47' W 079°44'1111.3
2014-Dec-18 08:33N 25°36' W 079°42'  
2014-Dec-13 06:06N 24°28' W 081°02'7414.9
2014-Dec-13 01:08N 25°18' W 080°03'1115.2
2014-Dec-13 00:25N 25°29' W 080°01'1416.7
2014-Dec-12 23:33N 25°43' W 080°02'1716.5
2014-Dec-12 22:33N 25°60' W 080°03'6 5.3
2014-Dec-12 21:29N 26°04' W 080°07'0 0.0
2014-Dec-12 20:32N 26°04' W 080°07'0 0.0
2014-Dec-12 19:31N 26°04' W 080°07'0 0.0
2014-Dec-12 18:25N 26°04' W 080°07'0 0.0
2014-Dec-12 17:33N 26°04' W 080°07'0 0.0
2014-Dec-12 16:27N 26°04' W 080°07'0 0.0
2014-Dec-12 15:32N 26°04' W 080°07'0 0.0
2014-Dec-12 14:23N 26°04' W 080°07'0 0.0
2014-Dec-12 13:32N 26°04' W 080°07'0 0.0
2014-Dec-12 12:31N 26°04' W 080°07'0 0.0
2014-Dec-12 11:22N 26°04' W 080°07'0 0.0
2014-Dec-12 10:30N 26°04' W 080°07'0 0.0
2014-Dec-12 09:24N 26°04' W 080°07'0 0.0
2014-Dec-12 08:32N 26°04' W 080°07'0 0.0
2014-Dec-12 07:29N 26°04' W 080°07'0 0.0
2014-Dec-12 06:32N 26°04' W 080°07'0 0.0
2014-Dec-12 05:28N 26°04' W 080°07'0 0.0
2014-Dec-12 04:22N 26°04' W 080°07'0 0.0
2014-Dec-12 03:33N 26°04' W 080°07'0 0.0
2014-Dec-12 02:24N 26°04' W 080°07'2 2.0
2014-Dec-12 01:33N 26°06' W 080°07'1212.2
2014-Dec-12 00:33N 25°56' W 079°58'1716.6
2014-Dec-11 23:33N 25°39' W 079°58'  
Track history (hours):
 
Tides and Currents Weather Stations Pressure Air Temp Water Temp Dewpoint Dewpoint Depression Visibility Wind Speed Wind Dir Waves Ship Positions

K-storm

Last reported at 2014-Dec-19 15:24 UTC. Time now 2014-Dec-22 07:07 UTC.
Position N 25°41' W 079°43'.

Length 139 m; draft 6 m.

Type: Ship. MMSI: 305350000.

Date/timePositionNaut miles runAvg speedWind from/ knotsBaromVisibWave heightAir tempDewpointWater temp
2014-Dec-19 15:24N 25°41' W 079°43'1113.3
2014-Dec-19 14:34N 25°51' W 079°49'1414.4
2014-Dec-19 13:33N 26°02' W 079°60'7 6.5
2014-Dec-19 12:30N 26°04' W 080°07'0 0.0
2014-Dec-19 11:24N 26°04' W 080°07'0 0.0
2014-Dec-19 10:32N 26°04' W 080°07'0 0.0
2014-Dec-19 09:26N 26°04' W 080°07'0 0.0
2014-Dec-19 08:20N 26°04' W 080°07'0 0.0
2014-Dec-19 07:25N 26°04' W 080°07'0 0.0
2014-Dec-19 06:22N 26°04' W 080°07'0 0.0
2014-Dec-19 05:30N 26°04' W 080°07'0 0.0
2014-Dec-19 04:21N 26°04' W 080°07'0 0.0
2014-Dec-19 03:29N 26°04' W 080°07'0 0.0
2014-Dec-19 02:26N 26°04' W 080°07'0 0.0
2014-Dec-19 01:32N 26°04' W 080°07'0 0.0
2014-Dec-19 00:28N 26°04' W 080°07'0 0.0
2014-Dec-18 23:31N 26°04' W 080°07'0 0.0
2014-Dec-18 22:30N 26°04' W 080°07'0 0.0
2014-Dec-18 21:33N 26°04' W 080°07'0 0.0
2014-Dec-18 20:29N 26°04' W 080°07'0 0.0
2014-Dec-18 19:26N 26°04' W 080°07'0 0.0
2014-Dec-18 18:32N 26°04' W 080°07'0 0.0
2014-Dec-18 17:28N 26°04' W 080°07'0 0.0
2014-Dec-18 16:31N 26°04' W 080°07'0 0.0
2014-Dec-18 15:30N 26°04' W 080°07'0 0.0
2014-Dec-18 14:33N 26°04' W 080°07'0 0.0
2014-Dec-18 13:32N 26°04' W 080°07'1 0.8
2014-Dec-18 12:33N 26°05' W 080°07'7 7.3
2014-Dec-18 11:33N 26°02' W 079°59'1010.4
2014-Dec-18 10:33N 25°54' W 079°52'1010.3
2014-Dec-18 09:33N 25°47' W 079°44'1111.3
2014-Dec-18 08:33N 25°36' W 079°42'  
2014-Dec-13 06:06N 24°28' W 081°02'7414.9
2014-Dec-13 01:08N 25°18' W 080°03'1115.2
2014-Dec-13 00:25N 25°29' W 080°01'1416.7
2014-Dec-12 23:33N 25°43' W 080°02'1716.5
2014-Dec-12 22:33N 25°60' W 080°03'6 5.3
2014-Dec-12 21:29N 26°04' W 080°07'0 0.0
2014-Dec-12 20:32N 26°04' W 080°07'0 0.0
2014-Dec-12 19:31N 26°04' W 080°07'0 0.0
2014-Dec-12 18:25N 26°04' W 080°07'0 0.0
2014-Dec-12 17:33N 26°04' W 080°07'0 0.0
2014-Dec-12 16:27N 26°04' W 080°07'0 0.0
2014-Dec-12 15:32N 26°04' W 080°07'0 0.0
2014-Dec-12 14:23N 26°04' W 080°07'0 0.0
2014-Dec-12 13:32N 26°04' W 080°07'0 0.0
2014-Dec-12 12:31N 26°04' W 080°07'0 0.0
2014-Dec-12 11:22N 26°04' W 080°07'0 0.0
2014-Dec-12 10:30N 26°04' W 080°07'0 0.0
2014-Dec-12 09:24N 26°04' W 080°07'0 0.0
2014-Dec-12 08:32N 26°04' W 080°07'0 0.0
2014-Dec-12 07:29N 26°04' W 080°07'0 0.0
2014-Dec-12 06:32N 26°04' W 080°07'0 0.0
2014-Dec-12 05:28N 26°04' W 080°07'0 0.0
2014-Dec-12 04:22N 26°04' W 080°07'0 0.0
2014-Dec-12 03:33N 26°04' W 080°07'0 0.0
2014-Dec-12 02:24N 26°04' W 080°07'2 2.0
2014-Dec-12 01:33N 26°06' W 080°07'1212.2
2014-Dec-12 00:33N 25°56' W 079°58'1716.6
2014-Dec-11 23:33N 25°39' W 079°58'  

Dump ship's entire track history